Time;durP1;ratioP1;P1;durP2;ratioP2;P2;SDS_P1;SDS_P2;PMS_P1;PMS_P2;Temp;Humidity;BMP_temperature;BMP_pressure;BME280_temperature;BME280_humidity;BME280_pressure;Samples;Min_cycle;Max_cycle;Signal;HPM_P1;HPM_P2
2022/12/19 00:01:14;;;;;;;71.97;29.38;;;;;;;14.08;48.19;95853.41;5063769;28;20443;-87
2022/12/19 00:03:43;;;;;;;64.00;28.13;;;;;;;13.32;49.37;95852.47;5081360;28;20441;-87
2022/12/19 00:06:08;;;;;;;58.97;25.67;;;;;;;11.96;51.80;95851.78;5097789;28;20043;-87
2022/12/19 00:08:34;;;;;;;75.93;29.17;;;;;;;12.72;50.97;95854.94;5098127;28;20036;-88
2022/12/19 00:11:01;;;;;;;76.13;28.60;;;;;;;12.87;51.12;95859.59;5098465;28;20039;-88
2022/12/19 00:13:28;;;;;;;73.82;29.92;;;;;;;13.32;50.80;95849.03;5080043;28;20036;-87
2022/12/19 00:15:53;;;;;;;66.15;28.08;;;;;;;12.92;50.13;95854.41;5079704;28;20031;-87
2022/12/19 00:18:19;;;;;;;76.40;30.90;;;;;;;12.26;52.01;95845.41;5098008;28;20047;-88
2022/12/19 00:20:53;;;;;;;66.68;28.92;;;;;;;13.46;49.53;95855.53;5080243;28;20064;-88
2022/12/19 00:23:19;;;;;;;65.70;27.77;;;;;;;11.81;51.36;95848.91;5080178;28;20119;-88
2022/12/19 00:25:44;;;;;;;55.60;26.30;;;;;;;12.87;49.84;95849.09;5079429;28;20113;-87
2022/12/19 00:28:09;;;;;;;56.67;24.25;;;;;;;12.81;49.64;95844.78;5098075;28;20111;-88
2022/12/19 00:30:35;;;;;;;56.47;25.90;;;;;;;12.58;48.50;95854.50;5079582;28;20328;-88
2022/12/19 00:33:00;;;;;;;57.85;26.50;;;;;;;11.00;52.86;95861.13;5079704;28;20030;-87
2022/12/19 00:35:26;;;;;;;63.30;27.58;;;;;;;10.96;53.16;95857.38;5079926;28;20094;-87
2022/12/19 00:37:51;;;;;;;64.50;27.83;;;;;;;11.20;55.20;95870.44;5062699;28;20064;-87
2022/12/19 00:40:17;;;;;;;62.92;26.67;;;;;;;12.17;52.58;95867.84;5097547;28;20427;-88
2022/12/19 00:42:42;;;;;;;64.80;27.35;;;;;;;12.18;50.59;95873.91;5079438;28;20157;-87
2022/12/19 00:45:08;;;;;;;53.70;25.15;;;;;;;12.61;49.74;95866.34;5097754;28;20077;-87
2022/12/19 00:47:33;;;;;;;61.42;27.17;;;;;;;11.09;52.27;95878.09;5097160;28;20032;-88
2022/12/19 00:49:59;;;;;;;57.47;26.08;;;;;;;11.76;52.42;95886.38;5062935;28;20126;-87
2022/12/19 00:52:24;;;;;;;57.25;24.65;;;;;;;12.55;50.28;95899.66;5079679;28;20035;-87
2022/12/19 00:54:50;;;;;;;47.78;21.88;;;;;;;11.94;50.23;95906.38;5079553;28;20087;-88
2022/12/19 00:57:15;;;;;;;57.72;23.40;;;;;;;12.44;49.35;95902.19;5078941;28;20039;-87
2022/12/19 00:59:40;;;;;;;61.75;26.83;;;;;;;12.42;49.93;95906.06;5079364;28;20421;-88
2022/12/19 01:02:06;;;;;;;56.30;26.08;;;;;;;12.64;49.35;95903.50;5097564;28;20042;-88
2022/12/19 01:04:31;;;;;;;47.42;22.88;;;;;;;12.38;49.64;95907.59;5097498;28;20124;-87
2022/12/19 01:06:57;;;;;;;47.67;22.52;;;;;;;12.81;48.38;95898.19;5078939;28;20028;-88
2022/12/19 01:09:22;;;;;;;48.92;22.60;;;;;;;12.59;48.93;95888.44;5078885;28;20119;-87
2022/12/19 01:14:32;;;;;;;46.15;21.65;;;;;;;12.65;48.65;95891.16;5097147;28;20476;-87
2022/12/19 01:16:57;;;;;;;47.78;22.75;;;;;;;12.56;48.73;95891.56;5078699;28;20032;-88
2022/12/19 01:19:25;;;;;;;48.70;23.13;;;;;;;12.58;48.38;95884.22;5078908;28;20063;-88
2022/12/19 01:21:50;;;;;;;57.05;26.67;;;;;;;11.48;52.48;95898.47;5062187;28;20034;-87
2022/12/19 01:24:16;;;;;;;52.05;23.48;;;;;;;12.07;51.87;95892.16;5097303;28;20040;-88
2022/12/19 01:26:41;;;;;;;64.90;29.30;;;;;;;11.88;51.44;95894.16;5096806;28;20042;-88
2022/12/19 01:29:07;;;;;;;71.25;30.02;;;;;;;11.79;51.63;95885.88;5079134;28;20040;-87
2022/12/19 01:31:32;;;;;;;64.65;27.00;;;;;;;12.49;50.90;95890.94;5097219;28;20459;-88
2022/12/19 01:33:59;;;;;;;63.40;27.63;;;;;;;12.54;49.67;95888.38;5079120;28;20042;-88
2022/12/19 01:36:24;;;;;;;57.53;25.27;;;;;;;12.42;49.86;95885.03;5096816;28;20039;-88
2022/12/19 01:38:49;;;;;;;69.20;29.45;;;;;;;10.98;53.27;95884.16;5096826;28;20032;-87
2022/12/19 01:41:15;;;;;;;74.25;31.05;;;;;;;11.76;53.03;95878.50;5096842;28;20060;-87
2022/12/19 01:44:04;;;;;;;65.70;27.83;;;;;;;13.00;49.49;95868.97;5078727;28;20059;-87
2022/12/19 01:46:49;;;;;;;74.68;29.55;;;;;;;12.65;50.90;95867.50;5078688;28;20115;-88
2022/12/19 01:49:24;;;;;;;75.50;30.70;;;;;;;12.02;51.33;95860.56;5078828;28;20032;-88
2022/12/19 01:51:51;;;;;;;76.97;31.48;;;;;;;11.89;52.64;95861.63;5078772;28;20024;-88
2022/12/19 01:54:19;;;;;;;76.95;29.52;;;;;;;12.62;51.48;95860.06;5078564;28;20403;-88
2022/12/19 01:56:49;;;;;;;64.07;27.48;;;;;;;12.94;50.27;95875.22;5078162;28;20034;-88
2022/12/19 01:59:56;;;;;;;64.20;27.63;;;;;;;12.76;49.58;95860.53;5081526;28;20067;-88
2022/12/19 02:02:31;;;;;;;65.60;27.17;;;;;;;11.95;52.16;95838.88;5078704;28;20480;-87
2022/12/19 02:05:00;;;;;;;65.75;28.23;;;;;;;12.37;51.38;95845.56;5083087;28;20063;-88
2022/12/19 02:07:26;;;;;;;58.88;25.38;;;;;;;12.59;51.05;95849.00;5082292;28;20047;-88
2022/12/19 02:09:53;;;;;;;63.70;27.00;;;;;;;12.28;51.28;95848.59;5082719;28;20036;-88
2022/12/19 02:12:19;;;;;;;60.13;27.38;;;;;;;12.37;51.36;95845.56;5082322;28;20036;-88
2022/12/19 02:14:49;;;;;;;69.30;28.45;;;;;;;12.97;50.94;95848.41;5082538;28;20039;-88
2022/12/19 02:17:28;;;;;;;59.65;26.83;;;;;;;12.99;50.27;95848.97;5081904;28;20036;-88
2022/12/19 02:20:04;;;;;;;74.85;29.67;;;;;;;12.69;51.40;95850.97;5082389;28;20081;-87
2022/12/19 02:22:39;;;;;;;79.95;30.98;;;;;;;11.90;52.83;95854.56;5100278;28;20130;-88
2022/12/19 02:25:07;;;;;;;76.95;30.50;;;;;;;12.62;52.02;95846.91;5100270;28;20040;-87
2022/12/19 02:27:41;;;;;;;71.60;28.63;;;;;;;12.67;50.53;95849.63;5099404;28;20046;-88
2022/12/19 02:30:10;;;;;;;60.40;26.20;;;;;;;12.80;51.48;95844.00;5096900;28;20072;-88
2022/12/19 02:33:27;;;;;;;62.97;26.15;;;;;;;13.31;50.07;95845.59;5078954;28;20040;-88
2022/12/19 02:35:55;;;;;;;62.20;26.80;;;;;;;13.06;50.56;95838.25;5023289;28;20036;-88
2022/12/19 02:38:32;;;;;;;67.00;28.08;;;;;;;12.69;49.61;95845.69;5055199;28;20028;-89
2022/12/19 02:41:16;;;;;;;59.13;25.05;;;;;;;12.41;50.02;95852.72;5076289;28;20043;-89
2022/12/19 02:43:46;;;;;;;58.60;24.08;;;;;;;12.86;49.80;95850.13;5099663;28;20028;-88
2022/12/19 02:46:15;;;;;;;55.17;24.27;;;;;;;12.78;50.03;95848.72;5081383;28;20063;-88
2022/12/19 02:48:40;;;;;;;56.65;24.75;;;;;;;12.56;49.77;95849.50;5100057;28;20451;-88
2022/12/19 02:51:06;;;;;;;62.85;28.20;;;;;;;11.77;52.05;95853.81;5081686;28;20127;-88
2022/12/19 02:53:32;;;;;;;73.75;29.38;;;;;;;11.39;52.35;95857.91;5081767;28;20032;-89
2022/12/19 02:56:00;;;;;;;73.93;29.25;;;;;;;11.31;54.60;95861.69;5099485;28;20036;-88
2022/12/19 02:58:44;;;;;;;73.18;30.08;;;;;;;12.55;51.46;95847.91;5097957;28;20028;-88
2022/12/19 03:01:28;;;;;;;70.20;29.48;;;;;;;12.80;50.67;95851.09;5061440;28;20036;-88
2022/12/19 03:03:53;;;;;;;;;;;;;;;13.00;50.18;95847.91;5061738;28;20032;-89
2022/12/19 03:06:23;;;;;;;68.75;28.55;;;;;;;12.46;51.59;95853.81;5078769;28;19991;-88
2022/12/19 03:09:02;;;;;;;84.45;33.47;;;;;;;12.53;51.15;95855.25;5044364;28;20028;-89
2022/12/19 03:11:33;;;;;;;83.80;33.33;;;;;;;12.38;52.98;95852.41;5060933;28;20448;-88
2022/12/19 03:14:07;;;;;;;89.53;34.17;;;;;;;12.51;52.96;95857.31;5061172;28;20043;-88
2022/12/19 03:16:35;;;;;;;90.10;34.63;;;;;;;12.44;52.96;95861.94;5060745;28;20098;-88
2022/12/19 03:19:01;;;;;;;96.75;34.97;;;;;;;12.61;51.41;95858.47;5061042;28;20128;-88
2022/12/19 03:21:39;;;;;;;87.15;34.00;;;;;;;12.70;50.24;95864.91;5061030;28;20089;-88
2022/12/19 03:24:06;;;;;;;73.00;31.50;;;;;;;12.55;50.87;95862.88;5061023;28;20036;-88
2022/12/19 03:26:36;;;;;;;85.22;32.95;;;;;;;12.56;50.74;95862.63;5060692;28;20032;-88
2022/12/19 03:29:27;;;;;;;81.43;32.90;;;;;;;13.13;50.21;95859.91;5061195;28;20035;-88
2022/12/19 03:31:53;;;;;;;78.10;31.80;;;;;;;12.23;51.79;95861.66;5049586;28;20044;-88
2022/12/19 03:34:28;;;;;;;76.50;30.27;;;;;;;11.91;52.05;95859.56;5060706;28;20452;-88
2022/12/19 03:37:00;;;;;;;81.20;32.75;;;;;;;12.53;52.12;95859.69;5043737;28;20119;-88
2022/12/19 03:39:27;;;;;;;89.37;32.40;;;;;;;12.95;50.90;95861.78;5060752;28;20032;-88
2022/12/19 03:44:41;;;;;;;86.97;32.80;;;;;;;11.79;51.97;95848.34;5063199;28;20090;-88
2022/12/19 03:47:15;;;;;;;81.00;30.55;;;;;;;11.09;53.42;95843.19;5059964;28;20036;-88
2022/12/19 03:49:41;;;;;;;97.50;35.17;;;;;;;11.78;53.22;95833.63;5078316;28;20028;-88
2022/12/19 03:52:11;;;;;;;99.25;36.83;;;;;;;12.27;51.99;95833.84;5060676;28;20086;-88
2022/12/19 03:54:44;;;;;;;103.15;36.63;;;;;;;12.11;51.72;95832.81;5077888;28;20044;-88
2022/12/19 03:57:10;;;;;;;104.30;36.20;;;;;;;10.95;54.42;95832.19;5073431;28;20063;-89
2022/12/19 03:59:40;;;;;;;92.82;37.65;;;;;;;11.55;53.82;95830.09;5090409;28;20082;-88
2022/12/19 04:02:07;;;;;;;98.13;35.25;;;;;;;12.24;53.11;95831.72;5069077;28;20032;-89
2022/12/19 04:04:39;;;;;;;92.22;34.17;;;;;;;12.97;51.25;95825.50;5080521;28;20035;-88
2022/12/19 04:07:05;;;;;;;81.35;32.00;;;;;;;13.07;50.84;95824.03;5063256;28;20363;-88
2022/12/19 04:09:31;;;;;;;76.97;33.42;;;;;;;12.89;50.85;95818.06;5080263;28;20321;-88
2022/12/19 04:12:01;;;;;;;89.07;35.35;;;;;;;12.64;51.38;95821.97;5063637;28;20136;-88
2022/12/19 04:14:39;;;;;;;92.82;35.88;;;;;;;12.89;50.82;95825.97;5080265;28;20459;-88
2022/12/19 04:17:26;;;;;;;88.07;34.60;;;;;;;13.49;50.07;95817.41;5079907;28;20042;-88
2022/12/19 04:20:00;;;;;;;85.47;34.58;;;;;;;13.14;51.00;95827.28;5097891;28;20047;-88
2022/12/19 04:22:59;;;;;;;81.35;31.85;;;;;;;13.56;49.60;95818.78;5097796;28;20068;-88
2022/12/19 04:25:28;;;;;;;93.78;35.20;;;;;;;12.76;50.98;95819.22;5097934;28;20115;-88
2022/12/19 04:27:58;;;;;;;92.10;35.00;;;;;;;12.73;51.35;95827.59;5079395;28;20371;-88
2022/12/19 04:30:23;;;;;;;88.65;34.75;;;;;;;12.67;51.25;95828.59;5080071;28;20115;-88
2022/12/19 04:32:49;;;;;;;110.32;37.65;;;;;;;12.73;51.46;95824.97;5079934;28;20073;-88
2022/12/19 04:35:15;;;;;;;90.50;35.40;;;;;;;12.70;52.09;95815.75;5079656;28;20071;-88
2022/12/19 04:37:40;;;;;;;87.85;34.60;;;;;;;12.68;51.04;95823.06;5079411;28;20036;-88
2022/12/19 04:40:07;;;;;;;88.07;33.13;;;;;;;13.03;50.89;95815.84;5079832;28;20063;-88
2022/12/19 04:42:32;;;;;;;90.43;33.80;;;;;;;12.77;49.60;95820.03;5097653;28;20024;-88
2022/12/19 04:44:58;;;;;;;85.70;33.25;;;;;;;12.72;50.03;95823.38;5096031;28;20332;-88
2022/12/19 04:47:23;;;;;;;86.05;32.45;;;;;;;12.17;50.88;95815.31;5097275;28;20035;-88
2022/12/19 04:49:49;;;;;;;94.55;35.65;;;;;;;11.48;53.51;95824.19;5097558;28;20085;-88
2022/12/19 04:52:26;;;;;;;93.55;34.15;;;;;;;12.45;51.85;95805.69;5079328;28;20089;-88
2022/12/19 04:55:04;;;;;;;83.60;31.55;;;;;;;12.60;50.09;95813.00;5079033;28;20040;-88
2022/12/19 04:57:30;;;;;;;80.80;30.85;;;;;;;11.42;51.76;95808.38;5078823;28;20055;-88
2022/12/19 04:59:55;;;;;;;91.10;35.60;;;;;;;12.05;52.51;95811.97;5079528;28;20494;-88
2022/12/19 05:02:21;;;;;;;91.25;32.60;;;;;;;12.27;51.23;95818.09;5062447;28;20028;-88
2022/12/19 05:04:46;;;;;;;70.85;29.08;;;;;;;12.35;50.53;95813.47;5079267;28;20330;-88
2022/12/19 05:07:12;;;;;;;71.57;26.48;;;;;;;13.15;50.05;95800.72;5062293;28;20039;-88
2022/12/19 05:09:38;;;;;;;79.28;30.60;;;;;;;12.65;50.88;95801.75;5079501;28;20064;-88
2022/12/19 05:12:03;;;;;;;77.05;30.30;;;;;;;11.62;51.55;95798.44;5079407;28;20059;-88
2022/12/19 05:14:29;;;;;;;93.38;36.33;;;;;;;11.43;54.30;95809.97;5078734;28;20084;-88
2022/12/19 05:16:54;;;;;;;78.95;28.17;;;;;;;12.64;52.05;95814.09;5078614;28;20449;-88
2022/12/19 05:19:19;;;;;;;73.95;28.08;;;;;;;12.57;51.66;95803.75;5097179;28;20093;-88
2022/12/19 05:21:45;;;;;;;71.60;27.67;;;;;;;12.40;51.63;95808.28;5090805;28;20040;-88
2022/12/19 05:24:10;;;;;;;65.90;26.35;;;;;;;12.62;51.96;95807.47;5077054;28;20041;-88
2022/12/19 05:26:36;;;;;;;60.38;25.52;;;;;;;12.99;50.00;95807.66;5043708;28;20122;-88
2022/12/19 05:29:01;;;;;;;73.05;27.55;;;;;;;12.90;50.96;95805.69;5077016;28;20032;-88
2022/12/19 05:31:27;;;;;;;64.95;26.13;;;;;;;11.53;53.90;95808.53;5079080;28;20051;-88
2022/12/19 05:33:52;;;;;;;62.90;27.13;;;;;;;12.20;52.72;95809.59;5081256;28;20111;-87
2022/12/19 05:36:18;;;;;;;65.18;26.00;;;;;;;13.05;50.69;95803.22;5083019;28;20172;-88
2022/12/19 05:38:44;;;;;;;65.47;25.52;;;;;;;12.82;50.66;95801.66;5101343;28;20122;-87
2022/12/19 05:41:14;;;;;;;67.85;26.35;;;;;;;13.30;50.70;95804.53;5083266;28;20123;-87
2022/12/19 05:43:40;;;;;;;64.82;24.38;;;;;;;11.34;53.17;95797.47;5082895;28;20032;-86
2022/12/19 05:46:06;;;;;;;60.67;24.05;;;;;;;12.19;52.51;95807.97;5082547;28;20040;-87
2022/12/19 05:48:32;;;;;;;63.72;24.58;;;;;;;12.59;52.09;95804.31;5082611;28;20042;-87
2022/12/19 05:50:57;;;;;;;65.10;26.10;;;;;;;12.91;51.03;95805.47;5082777;28;20050;-86
2022/12/19 05:53:23;;;;;;;63.10;23.35;;;;;;;12.84;49.96;95813.53;5100549;28;20067;-88
2022/12/19 05:55:48;;;;;;;75.35;29.45;;;;;;;12.14;51.29;95826.31;5065754;28;20142;-87
2022/12/19 05:58:13;;;;;;;70.32;25.83;;;;;;;11.97;53.13;95832.34;5100912;28;20428;-87
2022/12/19 06:00:39;;;;;;;81.53;28.13;;;;;;;12.37;53.53;95835.81;5100922;28;20043;-88
2022/12/19 06:03:04;;;;;;;83.00;32.70;;;;;;;12.75;51.38;95836.03;5060250;28;20039;-87
2022/12/19 06:05:30;;;;;;;78.38;24.60;;;;;;;11.69;51.69;95833.19;5087527;28;20036;-87
2022/12/19 06:07:55;;;;;;;51.28;22.08;;;;;;;10.97;54.82;95840.59;5100166;28;20502;-87
2022/12/19 06:10:21;;;;;;;52.45;20.15;;;;;;;11.87;52.25;95833.00;5066202;28;20169;-87
2022/12/19 06:12:46;;;;;;;60.28;24.05;;;;;;;12.42;52.43;95838.53;5080379;28;20036;-87
2022/12/19 06:15:12;;;;;;;55.63;20.67;;;;;;;12.64;51.70;95850.13;5080411;28;20338;-87
2022/12/19 06:17:37;;;;;;;67.95;25.42;;;;;;;12.83;52.37;95840.88;5061953;28;20036;-87
2022/12/19 06:20:03;;;;;;;58.80;24.00;;;;;;;13.00;50.74;95838.19;5062060;28;20036;-87
2022/12/19 06:22:29;;;;;;;53.08;20.98;;;;;;;12.65;51.59;95841.19;5080159;28;20089;-87
2022/12/19 06:24:54;;;;;;;44.03;17.95;;;;;;;12.69;51.35;95842.28;5080181;28;20445;-87
2022/12/19 06:27:20;;;;;;;45.55;17.40;;;;;;;12.58;49.93;95842.16;5091571;28;20039;-85
2022/12/19 06:29:45;;;;;;;45.58;18.92;;;;;;;12.35;51.64;95842.38;5089759;28;20485;-88
2022/12/19 06:32:10;;;;;;;36.53;16.30;;;;;;;12.29;52.49;95839.66;5081883;28;20034;-88
2022/12/19 06:34:36;;;;;;;41.33;17.02;;;;;;;12.27;52.28;95831.22;5082110;28;20040;-88
2022/12/19 06:37:01;;;;;;;46.67;17.75;;;;;;;13.13;50.60;95831.75;5081752;28;20032;-88
2022/12/19 06:39:27;;;;;;;61.35;23.20;;;;;;;12.82;51.05;95831.41;5099948;28;20063;-88
2022/12/19 06:44:42;;;;;;;53.10;22.58;;;;;;;13.57;49.84;95835.34;5087026;28;20358;-88
2022/12/19 06:47:07;;;;;;;71.05;26.77;;;;;;;13.02;49.94;95835.31;5061443;28;20038;-88
2022/12/19 06:49:33;;;;;;;62.22;25.80;;;;;;;11.63;52.45;95831.53;5061923;28;20032;-88
2022/12/19 06:51:59;;;;;;;76.35;29.30;;;;;;;12.64;51.75;95839.59;5078271;28;20029;-88
2022/12/19 06:54:25;;;;;;;81.10;31.25;;;;;;;11.73;53.40;95832.50;5079466;28;20032;-88
2022/12/19 06:56:50;;;;;;;75.55;28.83;;;;;;;12.44;53.03;95841.72;5061635;28;20037;-88
2022/12/19 06:59:15;;;;;;;75.75;27.70;;;;;;;12.92;50.54;95832.56;5079482;28;20040;-87
2022/12/19 07:01:59;;;;;;;58.08;24.73;;;;;;;13.30;50.50;95836.13;5061717;28;20043;-88
2022/12/19 07:04:31;;;;;;;63.30;24.90;;;;;;;13.56;50.61;95831.13;5079173;28;20090;-88
2022/12/19 07:06:57;;;;;;;72.72;28.45;;;;;;;12.83;51.11;95840.88;5060912;28;20032;-88
2022/12/19 07:09:23;;;;;;;72.30;28.10;;;;;;;12.15;52.43;95833.97;5061622;28;20036;-88
2022/12/19 07:11:48;;;;;;;77.47;28.67;;;;;;;13.37;51.18;95839.38;5061549;28;20047;-88
2022/12/19 07:14:13;;;;;;;70.72;28.88;;;;;;;13.56;49.24;95828.50;5061192;28;20041;-88
2022/12/19 07:16:40;;;;;;;64.35;25.30;;;;;;;13.58;51.02;95839.56;5077982;28;20036;-88
2022/12/19 07:19:06;;;;;;;68.22;25.75;;;;;;;14.20;49.86;95853.25;5081301;28;20044;-88
2022/12/19 07:21:31;;;;;;;66.70;26.75;;;;;;;13.93;50.11;95846.22;5099362;28;20093;-88
2022/12/19 07:23:57;;;;;;;63.88;24.98;;;;;;;14.32;50.41;95841.72;5080926;28;20114;-88
2022/12/19 07:26:23;;;;;;;59.60;24.08;;;;;;;13.91;50.65;95843.00;5098939;28;20035;-88
2022/12/19 07:28:48;;;;;;;60.97;25.05;;;;;;;14.21;49.42;95843.50;5081335;28;20399;-88
2022/12/19 07:31:15;;;;;;;56.40;22.70;;;;;;;14.78;49.49;95841.19;5081229;28;20062;-88
2022/12/19 07:33:40;;;;;;;62.83;24.38;;;;;;;14.33;48.32;95856.47;5099206;28;20387;-88
2022/12/19 07:36:06;;;;;;;52.38;21.48;;;;;;;14.60;48.47;95845.84;5098425;28;20032;-87
2022/12/19 07:38:31;;;;;;;53.10;21.25;;;;;;;14.92;47.17;95855.50;5080970;28;20439;-88
2022/12/19 07:41:00;;;;;;;62.20;24.25;;;;;;;14.65;49.59;95859.03;5099064;28;20123;-88
2022/12/19 07:43:25;;;;;;;72.45;25.48;;;;;;;14.48;50.77;95867.09;5080937;28;20036;-88
2022/12/19 07:45:54;;;;;;;73.82;28.33;;;;;;;14.78;50.42;95865.75;5080216;28;20059;-88
2022/12/19 07:48:20;;;;;;;59.38;24.88;;;;;;;15.17;49.76;95874.31;5080944;28;20039;-88
2022/12/19 07:50:46;;;;;;;62.42;26.15;;;;;;;15.09;48.94;95873.78;5080918;28;20412;-88
2022/12/19 07:53:12;;;;;;;55.33;22.85;;;;;;;15.28;48.65;95868.03;5098804;28;20058;-88
2022/12/19 07:55:37;;;;;;;54.55;21.73;;;;;;;15.04;48.94;95867.69;5079928;28;20028;-88
2022/12/19 07:58:02;;;;;;;45.28;20.58;;;;;;;15.33;49.18;95862.75;5098222;28;20036;-88
2022/12/19 08:00:30;;;;;;;49.70;21.48;;;;;;;15.30;48.74;95865.91;5098636;28;20032;-88
2022/12/19 08:02:57;;;;;;;50.47;22.40;;;;;;;15.42;48.39;95865.66;5080493;28;20036;-88
2022/12/19 08:05:22;;;;;;;49.72;21.75;;;;;;;14.79;48.95;95875.25;5080421;28;20117;-88
2022/12/19 08:07:48;;;;;;;42.97;20.17;;;;;;;15.00;46.55;95880.59;5098105;28;20066;-88
2022/12/19 08:10:14;;;;;;;42.08;19.27;;;;;;;14.55;48.77;95877.44;5080434;28;20107;-88
2022/12/19 08:12:40;;;;;;;44.40;19.90;;;;;;;12.84;51.75;95874.03;5098179;28;20028;-88
2022/12/19 08:15:06;;;;;;;45.22;19.58;;;;;;;13.57;50.38;95877.50;5080361;28;20425;-89
2022/12/19 08:17:31;;;;;;;45.15;21.00;;;;;;;14.21;49.71;95880.38;5079732;28;20155;-88
2022/12/19 08:19:57;;;;;;;48.97;20.85;;;;;;;14.33;49.88;95881.00;5098149;28;20826;-88
2022/12/19 08:22:22;;;;;;;51.45;21.63;;;;;;;13.89;49.44;95881.19;5079807;28;20032;-88
2022/12/19 08:24:47;;;;;;;42.58;19.63;;;;;;;14.40;49.52;95883.44;5098209;28;20344;-88
2022/12/19 08:27:15;;;;;;;47.08;20.58;;;;;;;14.51;49.52;95879.81;5079638;28;20038;-88
2022/12/19 08:29:41;;;;;;;44.60;20.77;;;;;;;13.74;50.47;95880.03;5079819;28;20413;-88
2022/12/19 08:32:06;;;;;;;44.15;21.35;;;;;;;14.70;49.48;95872.28;5063145;28;20032;-88
2022/12/19 08:34:31;;;;;;;44.45;19.98;;;;;;;14.61;49.34;95873.78;5098063;28;20340;-88
2022/12/19 08:36:57;;;;;;;46.38;19.58;;;;;;;14.79;49.07;95869.97;5097560;28;20074;-88
2022/12/19 08:39:22;;;;;;;48.58;21.33;;;;;;;15.80;48.47;95865.47;5097903;28;20042;-88
2022/12/19 08:41:48;;;;;;;45.75;20.65;;;;;;;16.05;47.97;95862.06;5063118;28;20036;-88
2022/12/19 08:44:14;;;;;;;50.05;20.13;;;;;;;15.73;49.07;95864.94;5079434;28;20399;-88
2022/12/19 08:46:39;;;;;;;38.22;18.73;;;;;;;15.35;47.46;95868.59;5079211;28;20031;-88
2022/12/19 08:49:05;;;;;;;52.38;20.33;;;;;;;16.10;49.41;95870.00;5097811;28;20085;-88
2022/12/19 08:51:30;;;;;;;39.20;18.20;;;;;;;16.40;46.34;95872.88;5079588;28;20425;-89
2022/12/19 08:53:55;;;;;;;39.85;17.60;;;;;;;16.56;48.14;95878.16;5079693;28;20357;-88
2022/12/19 08:56:21;;;;;;;38.65;18.50;;;;;;;15.74;49.34;95871.81;5062189;28;20031;-88
2022/12/19 08:58:47;;;;;;;40.45;18.58;;;;;;;16.54;49.46;95863.34;5079526;28;20036;-88
2022/12/19 09:01:17;;;;;;;45.05;20.10;;;;;;;17.19;46.74;95863.66;5079636;28;20059;-88
2022/12/19 09:03:43;;;;;;;42.47;19.25;;;;;;;17.03;49.62;95874.31;5097624;28;20442;-89
2022/12/19 09:06:10;;;;;;;45.75;20.88;;;;;;;17.86;48.77;95879.16;5078761;28;20028;-88
2022/12/19 09:08:36;;;;;;;40.63;18.88;;;;;;;17.67;47.95;95871.06;5097189;28;20122;-88
2022/12/19 09:11:04;;;;;;;33.90;15.85;;;;;;;17.72;46.02;95865.75;5062650;28;20232;-88
2022/12/19 09:13:30;;;;;;;32.63;16.30;;;;;;;17.86;45.73;95865.09;5062334;28;20030;-88
2022/12/19 09:16:01;;;;;;;28.92;13.93;;;;;;;18.19;44.68;95870.72;5078644;28;20028;-88
2022/12/19 09:18:27;;;;;;;26.02;13.48;;;;;;;17.12;45.79;95871.13;5078845;28;20051;-88
2022/12/19 09:20:54;;;;;;;26.88;12.02;;;;;;;17.62;44.85;95868.47;5079270;28;20036;-88
2022/12/19 09:23:20;;;;;;;33.45;12.18;;;;;;;17.60;45.14;95867.94;5097335;28;20036;-88
2022/12/19 09:25:46;;;;;;;24.92;12.25;;;;;;;17.40;44.72;95871.50;5062259;28;20027;-88
2022/12/19 09:28:11;;;;;;;27.08;12.80;;;;;;;17.98;47.00;95870.84;5079265;28;20394;-89
2022/12/19 09:30:36;;;;;;;23.73;11.90;;;;;;;17.31;44.79;95866.78;5062223;28;20024;-88
2022/12/19 09:33:02;;;;;;;24.33;12.77;;;;;;;17.90;45.37;95869.56;5079031;28;20334;-88
2022/12/19 09:35:27;;;;;;;26.23;11.93;;;;;;;17.90;46.43;95861.63;5079061;28;20036;-89
2022/12/19 09:37:53;;;;;;;24.45;12.20;;;;;;;18.02;45.30;95860.47;5078611;28;20040;-88
2022/12/19 09:40:18;;;;;;;23.88;11.55;;;;;;;17.36;45.28;95874.72;5079179;28;20032;-88
2022/12/19 09:43:38;;;;;;;23.98;11.57;;;;;;;18.63;45.57;95859.16;5078846;28;20040;-88
2022/12/19 09:46:29;;;;;;;30.13;13.05;;;;;;;18.48;46.06;95843.38;4994613;28;20336;-88
2022/12/19 09:48:56;;;;;;;34.15;14.23;;;;;;;19.13;46.13;95844.00;5093596;28;20101;-89
2022/12/19 09:51:43;;;;;;;29.98;13.15;;;;;;;19.73;45.85;95854.06;5062197;28;20028;-89
2022/12/19 09:54:14;;;;;;;25.98;12.82;;;;;;;19.21;44.32;95851.31;5062277;28;20054;-88
2022/12/19 09:56:42;;;;;;;25.75;11.02;;;;;;;18.41;44.25;95848.22;5096372;28;20075;-88
2022/12/19 09:59:26;;;;;;;26.60;11.95;;;;;;;19.08;45.48;95855.47;5062085;28;20391;-88
2022/12/19 10:02:18;;;;;;;22.85;11.15;;;;;;;19.44;44.48;95846.25;5096759;28;20040;-88
2022/12/19 10:05:04;;;;;;;22.35;10.68;;;;;;;19.23;43.98;95849.19;5051890;28;20108;-88
2022/12/19 10:07:29;;;;;;;24.83;11.35;;;;;;;18.37;46.51;95845.34;5078490;28;20039;-88
2022/12/19 10:09:55;;;;;;;24.38;11.77;;;;;;;18.86;44.30;95845.34;5062152;28;20031;-88
2022/12/19 10:12:45;;;;;;;20.05;10.60;;;;;;;19.30;42.06;95844.28;5078936;28;20326;-88
2022/12/19 10:15:36;;;;;;;18.20;9.98;;;;;;;19.33;44.90;95843.72;5096489;28;20035;-88
2022/12/19 10:18:08;;;;;;;22.67;10.95;;;;;;;18.15;44.12;95836.00;5061340;28;20038;-88
2022/12/19 10:20:37;;;;;;;18.40;10.25;;;;;;;18.43;42.80;95846.88;5081653;28;20486;-88
2022/12/19 10:23:24;;;;;;;17.85;8.93;;;;;;;17.79;43.52;95841.59;5082308;28;20439;-88
2022/12/19 10:26:10;;;;;;;18.10;10.10;;;;;;;17.20;45.46;95844.06;5099587;28;20027;-88
2022/12/19 10:29:23;;;;;;;19.15;9.70;;;;;;;18.14;45.08;95838.91;5082493;28;20067;-88
2022/12/19 10:31:57;;;;;;;17.00;9.13;;;;;;;18.28;45.24;95836.41;5066037;28;20050;-88
2022/12/19 10:34:44;;;;;;;19.75;10.48;;;;;;;19.76;43.73;95839.38;5082373;28;20045;-88
2022/12/19 10:37:28;;;;;;;21.17;10.68;;;;;;;19.91;42.78;95833.81;5081841;28;20059;-88
2022/12/19 10:40:09;;;;;;;23.13;11.75;;;;;;;20.63;42.93;95823.03;5081843;28;20115;-88
2022/12/19 10:42:54;;;;;;;19.95;9.70;;;;;;;20.03;43.40;95828.09;5081708;28;20078;-88
2022/12/19 10:45:21;;;;;;;19.25;10.30;;;;;;;20.71;41.14;95818.88;5082118;28;20043;-89
2022/12/19 10:47:49;;;;;;;20.30;9.80;;;;;;;19.52;42.21;95824.34;5064409;28;20036;-89
2022/12/19 10:50:24;;;;;;;15.82;8.98;;;;;;;19.35;42.67;95819.53;5063789;28;20444;-89
2022/12/19 10:52:56;;;;;;;27.58;10.20;;;;;;;20.69;42.05;95810.41;5073586;28;20119;-88
2022/12/19 10:55:29;;;;;;;16.10;8.88;;;;;;;19.41;44.08;95812.28;5066309;28;20341;-88
2022/12/19 10:57:59;;;;;;;20.63;9.75;;;;;;;21.00;42.80;95807.13;5070664;28;20380;-88
2022/12/19 11:00:25;;;;;;;14.93;8.80;;;;;;;19.49;44.03;95807.09;5073523;28;20028;-88
2022/12/19 11:03:06;;;;;;;16.58;8.85;;;;;;;19.88;43.59;95807.81;5081459;28;20036;-88
2022/12/19 11:05:43;;;;;;;16.17;8.48;;;;;;;21.28;42.15;95799.09;5081492;28;20028;-88
2022/12/19 11:08:08;;;;;;;15.05;8.50;;;;;;;20.26;41.53;95793.63;5081429;28;20027;-89
2022/12/19 11:10:43;;;;;;;14.70;8.25;;;;;;;21.66;40.18;95804.13;5099140;28;20031;-89
2022/12/19 11:13:25;;;;;;;15.18;8.60;;;;;;;21.99;40.93;95806.53;5081499;28;20031;-89
2022/12/19 11:15:58;;;;;;;15.50;8.75;;;;;;;19.32;42.87;95812.13;5080511;28;20071;-88
2022/12/19 11:18:36;;;;;;;17.50;9.45;;;;;;;20.99;41.32;95803.69;5081415;28;20097;-88
2022/12/19 11:21:04;;;;;;;17.17;8.98;;;;;;;21.61;40.83;95801.56;5081389;28;20024;-88
2022/12/19 11:23:31;;;;;;;38.40;11.50;;;;;;;20.97;42.43;95799.75;5064575;28;20027;-88
2022/12/19 11:26:00;;;;;;;31.23;15.68;;;;;;;21.21;40.87;95798.72;5080667;28;20031;-88
2022/12/19 11:28:35;;;;;;;27.23;15.05;;;;;;;21.28;39.96;95801.75;5081558;28;20063;-88
2022/12/19 11:31:00;;;;;;;34.63;16.92;;;;;;;20.16;41.04;95785.84;5080563;28;20108;-88
2022/12/19 11:33:26;;;;;;;38.53;19.38;;;;;;;20.82;40.67;95790.22;5099034;28;20067;-88
2022/12/19 11:35:54;;;;;;;43.63;22.20;;;;;;;20.76;41.63;95786.84;5098814;28;20103;-88